AirNav   TITAN Aviation Fuels
 
 1626 users online  

DT1 Downtown Fort Lauderdale Heliport
Fort Lauderdale, Florida, USA

GOING TO FORT LAUDERDALE?


FAA INFORMATION EFFECTIVE 09 SEPTEMBER 2021

Location

FAA Identifier: DT1
Lat/Long: 26-07-13.6720N 080-08-31.3975W
26-07.227867N 080-08.523292W
26.1204644,-80.1420549
(estimated)
Elevation: 114 ft. / 34.7 m (surveyed)
Variation: 05W (2000)
Time zone: UTC -4 (UTC -5 during Standard Time)
Zip code: 33301

Heliport Operations

Heliport use: Open to the public
Activation date: 05/2002
Control tower: no
ARTCC: MIAMI CENTER
FSS: MIAMI FLIGHT SERVICE STATION
NOTAMs facility: MIA (NOTAM-D service available)
Attendance: IREG
FOR RESERVATIONS & ASSISTANCE CALL 1-954-968-9675.
Wind indicator: lighted
Segmented circle: no
Lights: SS-SR

Heliport Communications

CTAF/UNICOM: 123.05
WX ASOS at FLL (3 nm S): 135.0 (954-359-7857)
WX ASOS at FXE (5 nm N): 119.85 (954-772-2537)
WX ASOS at PMP (8 nm N): 120.55 (954-783-3720)
WX ASOS at HWO (9 nm SW): PHONE 954-983-5904
WX ASOS at OPF (15 nm SW): 125.9 (305-681-4063)
WX AWOS-3 at BCT (16 nm N): 121.125 (561-391-2696)

Nearby radio navigation aids

VOR radial/distance  VOR name  Freq  Var
FLLr031/3.1FORT LAUDERDALE VOR/DME114.4006W
VKZr006/22.1VIRGINIA KEY VOR/DME117.1004W
DHPr034/22.2DOLPHIN VORTAC113.9004W
PBIr188/33.7PALM BEACH VORTAC115.7003W

Heliport Services

Runway Information

Helipad H1

Dimensions: 84 x 84 ft. / 26 x 26 m
Surface: concrete, in good condition
Runway edge lights: medium intensity
PERIMETER LGTS.
Runway edge markings: STD HELIPORT MARKINGS - GOOD CONDITION.
Latitude: 26-07.227867N
Longitude: 080-08.523292W
Elevation: 114.0 ft.
Traffic pattern: leftleft

Heliport Ownership and Management from official FAA records

Ownership: Publicly-owned
Owner: CITY OF FORT LAUDERDALE
P.O. BOX 14250
FT LAUDERDALE, FL 33301
Phone 954-828-5000
Manager: RUFUS JAMES
FORT LAUDERDALE EXECUTIVE AIRPORT, 6000 NORTHWEST 21ST AVENUE
FT LAUDERDALE, FL 33309
Phone (954) 828-4968
AIRPORT PHYSICAL ADDRESS: 201 SOUTHEAST 2ND AVE, FORT LAUDERDALE, FL 33301

Additional Remarks

A52-H1 BLDGS INVOF HELIPORT NW AND SW.
CONTACT FLL ATCT ON FREQ 119.3 PRIOR TO ENTERING FLL CLASS C AIRSPACE AND UPON TAKE-OFF.
PARKING PROHIBITED ON LNDG/TKOF (WESTERN) POSITION.
FOR CD CTC MIAMI APCH AT 305-869-5432.
PPR TO USE PARKING POSITION, ALL HOURS.
NO TAKE-OFFS OR LANDINGS AT EASTERN PARKING POSITION.
REPETITIVE FLIGHT TRAINING AND STUDENT SOLOS DISCOURAGED.
NOISE SENSITIVE AREAS ALL QUADRANTS.
PRIMARY APCH 145 DEGS TRUE COURSE INBOUND.
ROOFTOP FACILITY.
MAXIMUM ROTOR DIAMETER 46 FT.
MAXIMUM GROSS WEIGHT 11,900 LBS.

Instrument Procedures

There are no published instrument procedures at DT1.

Some nearby airports with instrument procedures:

KFLL - Fort Lauderdale/Hollywood International Airport (3 nm S)
KFXE - Fort Lauderdale Executive Airport (5 nm N)
KPMP - Pompano Beach Airpark (8 nm N)
KHWO - North Perry Airport (9 nm SW)
KOPF - Miami-Opa Locka Executive Airport (15 nm SW)
KBCT - Boca Raton Airport (16 nm N)
 
Loc | Ops | Rwys | IFR | FBO | Links
Com | Nav | Svcs | Stats | Notes

Reliance Aviation
AirBoss

 
Area around DT1 (Downtown Fort Lauderdale Heliport)
 
Road maps at: MapQuest Bing Google
 
Aerial photo
WARNING: Photo may not be current or correct
Aerial photo of DT1 (Downtown Fort Lauderdale Heliport)
Taken in January 2008

Do you have a better or more recent aerial photo of Downtown Fort Lauderdale Heliport that you would like to share? If so, please send us your photo.

 
Sectional chart

 
Airport distance calculator
Flying to Downtown Fort Lauderdale Heliport? Find the distance to fly.

From to DT1

Sunrise and sunset
Times for 21-Sep-2021
 Local
(UTC-4)
 Zulu
(UTC)
Morning civil twilight06:4710:47
Sunrise07:1011:10
Sunset19:1823:18
Evening civil twilight19:4123:41

Current date and time
Zulu (UTC)  21-Sep-2021 18:04:04
Local (UTC-4)  21-Sep-2021 14:04:04
 
METAR
KFLL 
3nm S 
211553Z 35003KT 10SM -RA FEW025 BKN110 26/26 A3004 RMK AO2 SLP173 CB DSNT N P0001 T02610261
KFXE 
5nm NW 
211553Z 33003KT 10SM -RA FEW080 BKN100 OVC120 26/25 A3005 RMK AO2 SLP178 P0004 T02560250
KPMP 
8nm N 
211553Z 33003KT 8SM -RA SCT110 27/24 A3005 RMK AO2 SLP177 P0000 T02670239
KHWO 
9nm SW 
211553Z 02003KT 10SM -RA BKN041 BKN055 26/23 A3006 RMK AO2 RAB1455 SLP179 P0000 T02610228
KOPF 
14nm SW 
211553Z 00000KT 10SM CLR 28/24 A3005 RMK AO2 LTG DSNT SW RAB07E50 SLP176 P0000 T02830239
KBCT 
16nm N 
211553Z 32003KT 5SM -RA DZ SCT050 25/24 A3006 RMK LTG DSNT NE AND SW.
TAF
KFLL 
3nm S 
211353Z 2114/2218 09008KT P6SM VCSH SCT030 SCT060 TEMPO 2114/2116 VRB10G20KT 5SM SHRA BKN025 FM211600 10010KT P6SM VCTS SCT030CB BKN050 FM220000 VRB05KT P6SM FEW025 SCT250 FM221400 12007KT P6SM SCT030 SCT050 FM221700 16010KT P6SM VCTS SCT030CB BKN050
KFXE 
5nm NW 
211123Z 2112/2212 VRB05KT P6SM VCSH SCT025 SCT060 TEMPO 2112/2113 VRB10KT 5SM SHRA BKN025 FM211300 09008KT P6SM VCSH SCT030 SCT060 FM211600 10010KT P6SM VCTS SCT030CB BKN050 FM220000 VRB05KT P6SM FEW025 SCT250
KOPF 
14nm SW 
211123Z 2112/2212 VRB05KT P6SM VCSH SCT025 SCT060 FM211300 09008KT P6SM VCSH SCT030 SCT060 FM211600 10010KT P6SM VCTS SCT030CB BKN050 FM220000 VRB05KT P6SM FEW025 SCT250
NOTAMs
Click for the latest NOTAMs
NOTAMs are issued by the DoD/FAA and will open in a separate window not controlled by AirNav.

 

 
 

Would you like to see your business listed on this page?

 If your business provides an interesting product or service to pilots, flight crews, aircraft, or users of the Downtown Fort Lauderdale Heliport, you should consider listing it here.  To start the listing process, click on the button below
 
Add a business
 

Other Pages about Downtown Fort Lauderdale Heliport

Update a link
 
Copyright © AirNav, LLC. All rights reserved. Privacy Policy  Contact